createdAt,value
2022-10-14T00:01:31.371Z,12.10
2022-10-14T00:03:58.527Z,12.10
2022-10-14T00:06:28.802Z,12.10
2022-10-14T00:08:56.423Z,12.10
2022-10-14T00:11:26.963Z,12.10
2022-10-14T00:14:10.902Z,12.10
2022-10-14T00:16:40.046Z,12.00
2022-10-14T00:19:07.261Z,12.00
2022-10-14T00:21:35.157Z,12.00
2022-10-14T00:24:01.846Z,12.00
2022-10-14T00:26:31.605Z,12.10
2022-10-14T00:28:59.741Z,12.00
2022-10-14T00:31:27.882Z,12.00
2022-10-14T00:33:54.938Z,12.10
2022-10-14T00:36:24.181Z,12.10
2022-10-14T00:38:52.246Z,12.10
2022-10-14T00:41:22.741Z,12.10
2022-10-14T00:44:10.492Z,12.10
2022-10-14T00:46:45.971Z,12.10
2022-10-14T00:49:32.491Z,12.10
2022-10-14T00:52:07.730Z,12.00
2022-10-14T00:54:38.874Z,12.10
2022-10-14T00:57:06.379Z,12.10
2022-10-14T00:59:34.202Z,12.10
2022-10-14T01:02:00.846Z,12.10
2022-10-14T01:04:27.471Z,12.10
2022-10-14T01:07:11.796Z,12.10
2022-10-14T01:09:59.089Z,12.10
2022-10-14T01:13:03.416Z,12.10
2022-10-14T01:15:46.471Z,12.10
2022-10-14T01:18:56.779Z,12.10
2022-10-14T01:21:39.010Z,12.10
2022-10-14T01:24:39.546Z,12.20
2022-10-14T01:27:17.824Z,12.20
2022-10-14T01:29:53.574Z,12.20
2022-10-14T01:32:45.580Z,12.30
2022-10-14T01:35:29.754Z,12.30
2022-10-14T01:38:03.758Z,12.20
2022-10-14T01:40:42.722Z,12.20
2022-10-14T01:43:13.224Z,12.20
2022-10-14T01:45:43.384Z,12.20
2022-10-14T01:48:13.007Z,12.20
2022-10-14T01:50:43.500Z,12.10
2022-10-14T01:53:23.390Z,12.20
2022-10-14T01:55:53.803Z,12.10
2022-10-14T01:58:24.437Z,12.10
2022-10-14T02:00:51.011Z,12.10
2022-10-14T02:03:17.919Z,12.10
2022-10-14T02:05:59.819Z,12.10
2022-10-14T02:08:55.030Z,12.10
2022-10-14T02:11:22.995Z,12.10
2022-10-14T02:14:14.797Z,12.10
2022-10-14T02:16:48.060Z,12.10
2022-10-14T02:19:28.005Z,12.10
2022-10-14T02:22:24.022Z,12.10
2022-10-14T02:24:57.312Z,12.00
2022-10-14T02:27:28.143Z,12.10
2022-10-14T02:29:56.231Z,12.10
2022-10-14T02:32:25.934Z,12.00
2022-10-14T02:34:55.220Z,12.00
2022-10-14T02:37:23.636Z,12.00
2022-10-14T02:39:58.943Z,12.00
2022-10-14T02:42:27.415Z,11.90
2022-10-14T02:45:01.109Z,11.90
2022-10-14T02:47:28.115Z,11.90
2022-10-14T02:49:54.956Z,11.90
2022-10-14T02:52:21.815Z,11.90
2022-10-14T02:54:48.560Z,12.00
2022-10-14T02:57:15.224Z,11.90
2022-10-14T02:59:41.756Z,11.90
2022-10-14T03:02:08.740Z,11.90
2022-10-14T03:04:35.683Z,11.90
2022-10-14T03:07:02.538Z,11.90
2022-10-14T03:09:30.031Z,11.90
2022-10-14T03:11:56.576Z,11.90
2022-10-14T03:14:23.178Z,11.90
2022-10-14T03:16:49.783Z,11.90
2022-10-14T03:19:16.418Z,11.80
2022-10-14T03:21:43.084Z,11.90
2022-10-14T03:24:09.831Z,11.80
2022-10-14T03:26:36.534Z,11.90
2022-10-14T03:29:03.106Z,11.80
2022-10-14T03:31:29.658Z,11.80
2022-10-14T03:33:56.207Z,11.80
2022-10-14T03:36:22.750Z,11.90
2022-10-14T03:38:49.282Z,11.80
2022-10-14T03:41:15.810Z,11.80
2022-10-14T03:43:42.353Z,11.90
2022-10-14T03:46:08.961Z,11.90
2022-10-14T03:48:35.504Z,11.90
2022-10-14T03:51:02.147Z,11.80
2022-10-14T03:53:28.745Z,11.80
2022-10-14T03:55:55.279Z,11.80
2022-10-14T03:58:21.867Z,11.80
2022-10-14T04:00:48.413Z,11.80
2022-10-14T04:03:15.103Z,11.80
2022-10-14T04:05:41.798Z,11.80
2022-10-14T04:08:08.469Z,11.80
2022-10-14T04:10:35.440Z,11.80
2022-10-14T04:13:02.091Z,11.80
2022-10-14T04:15:28.757Z,11.80
2022-10-14T04:17:56.111Z,11.80
2022-10-14T04:20:23.697Z,11.80
2022-10-14T04:22:50.235Z,11.80
2022-10-14T04:25:16.880Z,11.80
2022-10-14T04:27:43.455Z,11.80
2022-10-14T04:30:11.027Z,11.80
2022-10-14T04:32:37.584Z,11.80
2022-10-14T04:35:05.289Z,11.90
2022-10-14T04:37:31.966Z,11.80
2022-10-14T04:39:58.502Z,11.80
2022-10-14T04:42:25.197Z,11.80
2022-10-14T04:44:52.406Z,11.80
2022-10-14T04:47:18.955Z,11.80
2022-10-14T04:49:45.480Z,11.90
2022-10-14T04:52:12.216Z,11.80
2022-10-14T04:54:38.848Z,11.90
2022-10-14T04:57:05.416Z,11.90
2022-10-14T04:59:31.963Z,11.90
2022-10-14T05:01:59.768Z,11.90
2022-10-14T05:04:26.426Z,11.90
2022-10-14T05:06:53.445Z,11.90
2022-10-14T05:09:20.018Z,11.90
2022-10-14T05:11:47.105Z,11.90
2022-10-14T05:14:13.644Z,11.90
2022-10-14T05:16:40.254Z,11.90
2022-10-14T05:19:06.804Z,11.90
2022-10-14T05:21:33.380Z,11.90
2022-10-14T05:23:59.954Z,11.90
2022-10-14T05:26:26.590Z,11.90
2022-10-14T05:28:53.227Z,11.90
2022-10-14T05:31:19.801Z,11.90
2022-10-14T05:33:46.371Z,11.90
2022-10-14T05:36:12.906Z,11.90
2022-10-14T05:38:39.529Z,11.90
2022-10-14T05:41:06.136Z,11.90
2022-10-14T05:43:33.144Z,11.90
2022-10-14T05:46:00.270Z,11.90
2022-10-14T05:48:26.952Z,12.00
2022-10-14T05:50:53.557Z,12.00
2022-10-14T05:53:20.176Z,12.00
2022-10-14T05:55:46.796Z,12.00
2022-10-14T05:58:13.342Z,12.10
2022-10-14T06:00:40.057Z,12.10
2022-10-14T06:03:06.716Z,12.10
2022-10-14T06:05:36.504Z,12.10
2022-10-14T06:08:03.251Z,12.20
2022-10-14T06:10:29.837Z,12.20
2022-10-14T06:12:57.127Z,12.20
2022-10-14T06:15:23.684Z,12.20
2022-10-14T06:18:11.214Z,12.20
2022-10-14T06:20:37.831Z,12.30
2022-10-14T06:23:04.410Z,12.30
2022-10-14T06:25:31.737Z,12.30
2022-10-14T06:28:05.581Z,12.40
2022-10-14T06:30:33.044Z,12.40
2022-10-14T06:32:59.590Z,12.40
2022-10-14T06:35:26.141Z,12.50
2022-10-14T06:37:52.791Z,12.50
2022-10-14T06:40:19.584Z,12.50
2022-10-14T06:42:46.361Z,12.50
2022-10-14T06:45:13.064Z,12.50
2022-10-14T06:47:39.621Z,12.60
2022-10-14T06:50:06.744Z,12.60
2022-10-14T06:52:33.340Z,12.60
2022-10-14T06:54:59.999Z,12.70
2022-10-14T06:57:26.580Z,12.80
2022-10-14T06:59:53.107Z,12.80
2022-10-14T07:02:19.929Z,12.90
2022-10-14T07:04:46.732Z,13.10
2022-10-14T07:07:13.293Z,13.20
2022-10-14T07:09:40.455Z,13.20
2022-10-14T07:12:07.006Z,13.10
2022-10-14T07:14:33.547Z,13.10
2022-10-14T07:17:01.144Z,13.10
2022-10-14T07:19:27.689Z,13.10
2022-10-14T07:21:54.240Z,13.20
2022-10-14T07:24:20.779Z,13.20
2022-10-14T07:26:47.353Z,13.20
2022-10-14T07:29:13.914Z,13.20
2022-10-14T07:31:40.460Z,13.20
2022-10-14T07:34:07.011Z,13.30
2022-10-14T07:36:33.697Z,13.40
2022-10-14T07:39:01.007Z,13.50
2022-10-14T07:41:27.763Z,13.70
2022-10-14T07:44:01.790Z,13.80
2022-10-14T07:46:32.081Z,13.80
2022-10-14T07:49:02.034Z,13.80
2022-10-14T07:51:28.876Z,13.70
2022-10-14T07:53:58.025Z,13.70
2022-10-14T07:56:25.150Z,13.90
2022-10-14T07:58:52.446Z,13.80
2022-10-14T08:01:19.623Z,13.90
2022-10-14T08:03:48.109Z,13.90
2022-10-14T08:06:14.940Z,13.90
2022-10-14T08:08:43.335Z,13.80
2022-10-14T08:11:22.713Z,13.80
2022-10-14T08:13:50.161Z,13.80
2022-10-14T08:16:25.587Z,13.80
2022-10-14T08:18:52.866Z,13.90
2022-10-14T08:21:20.978Z,14.00
2022-10-14T08:23:47.937Z,14.10
2022-10-14T08:26:22.793Z,14.10
2022-10-14T08:28:50.761Z,14.10
2022-10-14T08:31:17.548Z,14.20
2022-10-14T08:33:44.332Z,14.20
2022-10-14T08:36:11.067Z,14.20
2022-10-14T08:38:37.612Z,14.30
2022-10-14T08:41:13.012Z,14.50
2022-10-14T08:43:48.589Z,14.60
2022-10-14T08:46:38.824Z,14.80
2022-10-14T08:49:43.924Z,14.90
